Time;durP1;ratioP1;P1;durP2;ratioP2;P2;SDS_P1;SDS_P2;PMS_P1;PMS_P2;Temp;Humidity;BMP_temperature;BMP_pressure;BME280_temperature;BME280_humidity;BME280_pressure;Samples;Min_cycle;Max_cycle;Signal;HPM_P1;HPM_P2
2020/12/16 00:00:11;;;;;;;61.20;37.33;;;8.10;79.80;;;;;;5088831;28;20086;-46
2020/12/16 00:02:40;;;;;;;57.88;37.10;;;8.10;79.40;;;;;;5073939;28;20107;-47
2020/12/16 00:05:10;;;;;;;77.22;45.72;;;8.20;79.30;;;;;;5073866;28;20078;-47
2020/12/16 00:07:37;;;;;;;60.58;36.08;;;8.20;79.40;;;;;;5073889;28;20371;-48
2020/12/16 00:10:09;;;;;;;59.92;36.22;;;8.20;78.90;;;;;;5074091;28;20131;-47
2020/12/16 00:12:38;;;;;;;60.97;37.28;;;8.20;79.20;;;;;;5073911;28;20033;-47
2020/12/16 00:15:04;;;;;;;56.13;35.97;;;8.20;79.20;;;;;;5073939;28;20060;-47
2020/12/16 00:17:30;;;;;;;57.63;36.58;;;7.50;80.90;;;;;;5074025;28;20036;-47
2020/12/16 00:19:56;;;;;;;63.90;38.13;;;7.50;81.60;;;;;;5071674;28;20422;-48
2020/12/16 00:22:21;;;;;;;57.17;36.42;;;7.60;81.70;;;;;;5072684;28;20115;-48
2020/12/16 00:24:50;;;;;;;59.75;37.72;;;7.80;81.10;;;;;;5073603;28;20036;-48
2020/12/16 00:27:16;;;;;;;60.50;37.28;;;7.90;80.50;;;;;;5073461;28;20020;-48
2020/12/16 00:29:46;;;;;;;64.50;39.30;;;8.10;79.90;;;;;;5073672;28;20039;-47
2020/12/16 00:32:12;;;;;;;65.40;39.10;;;8.20;79.30;;;;;;5073652;28;20024;-48
2020/12/16 00:34:40;;;;;;;62.42;38.30;;;8.30;79.00;;;;;;5054577;28;20367;-47
2020/12/16 00:37:06;;;;;;;67.75;39.55;;;8.30;78.60;;;;;;5073629;28;20031;-48
2020/12/16 00:39:32;;;;;;;55.40;36.03;;;8.40;78.10;;;;;;5071896;28;20036;-47
2020/12/16 00:41:58;;;;;;;57.17;33.80;;;8.40;78.30;;;;;;5071509;28;20032;-48
2020/12/16 00:44:23;;;;;;;54.55;34.30;;;8.50;78.00;;;;;;5073137;28;20036;-49
2020/12/16 00:46:49;;;;;;;55.42;34.47;;;8.50;78.00;;;;;;5071418;28;20032;-48
2020/12/16 00:49:15;;;;;;;57.13;36.40;;;8.60;78.00;;;;;;5073125;28;20027;-48
2020/12/16 00:51:41;;;;;;;56.63;34.92;;;8.50;77.50;;;;;;5073688;28;20104;-47
2020/12/16 00:54:06;;;;;;;59.05;35.85;;;8.40;77.60;;;;;;5073292;28;20082;-47
2020/12/16 00:56:32;;;;;;;60.13;36.38;;;8.40;77.80;;;;;;5073367;28;20028;-47
2020/12/16 00:58:58;;;;;;;60.22;36.35;;;8.40;77.60;;;;;;5073253;28;20036;-47
2020/12/16 01:01:23;;;;;;;60.65;38.03;;;8.20;78.00;;;;;;5073297;28;20099;-47
2020/12/16 01:03:49;;;;;;;60.65;35.97;;;7.90;79.40;;;;;;5071030;28;20048;-47
2020/12/16 01:06:15;;;;;;;59.97;37.95;;;7.90;79.80;;;;;;5073263;28;20067;-47
2020/12/16 01:08:41;;;;;;;57.97;36.78;;;8.10;79.70;;;;;;5087836;28;20044;-46
2020/12/16 01:11:07;;;;;;;57.53;35.47;;;8.20;78.80;;;;;;5073138;28;20496;-48
2020/12/16 01:13:33;;;;;;;59.00;36.42;;;8.30;78.30;;;;;;5073005;28;20098;-47
2020/12/16 01:15:59;;;;;;;59.50;37.00;;;8.30;78.10;;;;;;5073118;28;20465;-48
2020/12/16 01:18:24;;;;;;;68.68;37.90;;;8.30;78.10;;;;;;5072991;28;20036;-47
2020/12/16 01:20:50;;;;;;;58.38;35.47;;;8.40;77.90;;;;;;5072927;28;20060;-47
2020/12/16 01:23:16;;;;;;;63.78;38.65;;;8.20;78.00;;;;;;5072959;28;20024;-47
2020/12/16 01:25:42;;;;;;;60.03;37.17;;;8.10;78.80;;;;;;5072696;28;20064;-48
2020/12/16 01:28:08;;;;;;;61.60;37.00;;;8.20;78.40;;;;;;5053909;28;20518;-48
2020/12/16 01:30:33;;;;;;;65.10;38.15;;;8.20;78.10;;;;;;5073176;28;20028;-48
2020/12/16 01:32:59;;;;;;;62.00;36.42;;;7.70;79.50;;;;;;5072843;28;20049;-48
2020/12/16 01:35:26;;;;;;;59.13;36.88;;;7.50;80.70;;;;;;5073478;28;20025;-49
2020/12/16 01:37:53;;;;;;;62.28;37.45;;;7.60;81.20;;;;;;5091653;28;20515;-49
2020/12/16 01:40:19;;;;;;;64.22;38.97;;;7.10;82.30;;;;;;5076844;28;20483;-48
2020/12/16 01:42:45;;;;;;;61.42;36.42;;;7.00;83.50;;;;;;5076734;28;20468;-48
2020/12/16 01:45:18;;;;;;;66.57;37.50;;;7.00;83.40;;;;;;5076627;28;20039;-48
2020/12/16 01:47:59;;;;;;;64.13;37.00;;;6.90;84.70;;;;;;5076131;28;20029;-48
2020/12/16 01:50:26;;;;;;;62.30;35.28;;;7.00;84.30;;;;;;5091338;28;20044;-48
2020/12/16 01:52:59;;;;;;;64.43;38.70;;;6.70;85.10;;;;;;5076375;28;20116;-48
2020/12/16 01:55:27;;;;;;;66.38;39.03;;;6.90;85.10;;;;;;5076114;28;20032;-48
2020/12/16 01:58:05;;;;;;;62.65;37.50;;;6.70;85.40;;;;;;5076284;28;20040;-48
2020/12/16 02:00:35;;;;;;;62.00;36.42;;;6.90;84.90;;;;;;5076297;28;20032;-48
2020/12/16 02:03:04;;;;;;;57.17;37.38;;;7.00;85.20;;;;;;5075900;28;20181;-49
2020/12/16 02:05:31;;;;;;;56.65;35.55;;;7.30;83.70;;;;;;5076268;28;20032;-47
2020/12/16 02:08:10;;;;;;;58.38;34.78;;;7.40;82.50;;;;;;5075953;28;20036;-48
2020/12/16 02:10:58;;;;;;;60.13;34.95;;;7.50;82.10;;;;;;5073795;28;20044;-48
2020/12/16 02:13:24;;;;;;;60.25;37.30;;;7.70;81.60;;;;;;5073999;28;20047;-49
2020/12/16 02:15:50;;;;;;;62.28;37.10;;;7.70;81.20;;;;;;5076006;28;20032;-49
2020/12/16 02:18:15;;;;;;;60.03;35.78;;;7.60;81.30;;;;;;5075659;28;20028;-48
2020/12/16 02:20:41;;;;;;;63.88;36.75;;;7.20;82.20;;;;;;5076058;28;20074;-50
2020/12/16 02:23:18;;;;;;;63.33;36.95;;;7.40;82.90;;;;;;5075683;28;20058;-49
2020/12/16 02:25:45;;;;;;;67.15;37.05;;;7.50;82.10;;;;;;5074565;28;20461;-49
2020/12/16 02:28:11;;;;;;;64.03;39.00;;;7.60;81.80;;;;;;5075798;28;20043;-47
2020/12/16 02:30:37;;;;;;;62.05;37.08;;;7.70;81.50;;;;;;5075733;28;20029;-49
2020/12/16 02:33:03;;;;;;;66.20;37.17;;;7.80;81.10;;;;;;5075513;28;20024;-47
2020/12/16 02:35:28;;;;;;;61.28;38.05;;;7.80;80.80;;;;;;5075652;28;20025;-48
2020/12/16 02:37:54;;;;;;;65.65;38.92;;;7.90;80.50;;;;;;5075513;28;20036;-48
2020/12/16 02:40:20;;;;;;;63.03;37.25;;;7.90;80.40;;;;;;5075590;28;20025;-48
2020/12/16 02:42:45;;;;;;;68.38;38.95;;;7.70;80.80;;;;;;5075509;28;20483;-48
2020/12/16 02:45:11;;;;;;;64.35;38.10;;;7.80;81.00;;;;;;5075592;28;20039;-49
2020/12/16 02:47:37;;;;;;;62.15;38.30;;;7.60;81.30;;;;;;5075441;28;20031;-48
2020/12/16 02:50:04;;;;;;;64.82;37.88;;;7.20;82.80;;;;;;5075433;28;20031;-48
2020/12/16 02:52:30;;;;;;;70.13;37.38;;;7.30;83.20;;;;;;5075454;28;20071;-48
2020/12/16 02:54:56;;;;;;;78.72;46.50;;;7.20;83.60;;;;;;5075119;28;20035;-48
2020/12/16 02:57:21;;;;;;;66.32;38.50;;;7.40;83.50;;;;;;5075318;28;20028;-48
2020/12/16 03:00:05;;;;;;;65.07;37.22;;;7.60;82.00;;;;;;5075101;28;20074;-49
2020/12/16 03:02:31;;;;;;;71.05;41.03;;;7.80;81.30;;;;;;5074900;28;20559;-49
2020/12/16 03:04:56;;;;;;;62.85;37.15;;;7.60;81.40;;;;;;5075199;28;20111;-48
2020/12/16 03:07:22;;;;;;;74.18;40.72;;;7.20;82.90;;;;;;5074959;28;20419;-48
2020/12/16 03:09:48;;;;;;;62.00;37.13;;;7.40;83.20;;;;;;5055778;28;20095;-47
2020/12/16 03:12:14;;;;;;;57.90;33.83;;;7.50;81.60;;;;;;5075147;28;20416;-49
2020/12/16 03:14:39;;;;;;;57.80;33.33;;;7.70;80.60;;;;;;5074981;28;20024;-47
2020/12/16 03:17:05;;;;;;;61.33;35.22;;;7.90;79.50;;;;;;5074696;28;20062;-48
2020/12/16 03:19:31;;;;;;;59.38;36.38;;;7.90;79.50;;;;;;5074800;28;20040;-48
2020/12/16 03:21:57;;;;;;;60.08;35.65;;;7.90;80.10;;;;;;5074756;28;20020;-50
2020/12/16 03:24:22;;;;;;;62.10;33.92;;;7.70;79.90;;;;;;5074644;28;20033;-48
2020/12/16 03:26:51;;;;;;;60.88;36.08;;;7.10;81.70;;;;;;5074572;28;20029;-49
2020/12/16 03:29:19;;;;;;;61.80;35.05;;;7.10;82.60;;;;;;5074774;28;20479;-48
2020/12/16 03:31:45;;;;;;;68.22;39.03;;;7.40;82.40;;;;;;5074358;28;20033;-47
2020/12/16 03:34:11;;;;;;;69.13;38.42;;;7.60;81.30;;;;;;5072307;28;20040;-49
2020/12/16 03:36:37;;;;;;;67.78;38.85;;;7.60;80.70;;;;;;5074756;28;20020;-49
2020/12/16 03:39:08;;;;;;;60.00;35.38;;;7.70;80.20;;;;;;5074271;28;20452;-48
2020/12/16 03:41:46;;;;;;;67.90;36.75;;;7.10;82.10;;;;;;5089360;28;20478;-49
2020/12/16 03:44:17;;;;;;;65.35;36.05;;;7.30;81.90;;;;;;5074115;28;20066;-49
2020/12/16 03:46:52;;;;;;;60.90;35.05;;;7.50;81.30;;;;;;5074366;28;20045;-48
2020/12/16 03:49:26;;;;;;;65.88;37.63;;;7.50;81.10;;;;;;5072069;28;20028;-48
2020/12/16 03:51:55;;;;;;;63.38;36.55;;;7.30;81.40;;;;;;5089285;28;20361;-48
2020/12/16 03:54:44;;;;;;;59.80;34.80;;;7.10;82.60;;;;;;5088736;28;20472;-49
2020/12/16 03:57:16;;;;;;;61.17;34.95;;;7.30;82.20;;;;;;5074096;28;20035;-48
2020/12/16 03:59:42;;;;;;;62.47;36.28;;;7.30;81.60;;;;;;5022256;28;20040;-48
2020/12/16 04:02:16;;;;;;;64.18;35.55;;;7.50;81.40;;;;;;5037796;28;20171;-48
2020/12/16 04:04:42;;;;;;;70.50;39.72;;;7.50;81.10;;;;;;5038239;28;20063;-49
2020/12/16 04:07:08;;;;;;;63.17;36.03;;;7.60;80.70;;;;;;5071695;28;20476;-48
2020/12/16 04:09:34;;;;;;;67.40;38.28;;;7.50;80.50;;;;;;5071405;28;20191;-48
2020/12/16 04:12:02;;;;;;;58.63;34.05;;;7.60;80.80;;;;;;5071781;28;20036;-48
2020/12/16 04:14:28;;;;;;;59.80;34.55;;;7.60;80.70;;;;;;5071307;28;20040;-48
2020/12/16 04:16:57;;;;;;;64.88;35.80;;;7.50;81.20;;;;;;5038156;28;20036;-48
2020/12/16 04:19:22;;;;;;;67.18;37.35;;;7.40;81.60;;;;;;5071498;28;20036;-48
2020/12/16 04:21:53;;;;;;;67.28;36.47;;;7.40;81.30;;;;;;5071703;28;20025;-48
2020/12/16 04:24:18;;;;;;;65.40;33.83;;;7.30;82.00;;;;;;5053932;28;20049;-48
2020/12/16 04:26:44;;;;;;;69.80;37.03;;;7.00;82.70;;;;;;5071556;28;20338;-48
2020/12/16 04:29:10;;;;;;;67.03;35.22;;;7.10;82.90;;;;;;5071538;28;20028;-48
2020/12/16 04:31:35;;;;;;;64.75;36.90;;;7.20;82.90;;;;;;5073197;28;20051;-49
2020/12/16 04:34:10;;;;;;;61.08;36.95;;;7.00;83.20;;;;;;5073657;28;20099;-49
2020/12/16 04:36:43;;;;;;;62.10;34.78;;;7.30;82.60;;;;;;5073481;28;20031;-48
2020/12/16 04:39:09;;;;;;;60.95;35.60;;;7.10;82.00;;;;;;5073248;28;20032;-48
2020/12/16 04:41:35;;;;;;;64.40;37.90;;;7.20;83.10;;;;;;5073570;28;20033;-48
2020/12/16 04:44:03;;;;;;;67.32;35.53;;;7.00;82.70;;;;;;5073531;28;20040;-49
2020/12/16 04:46:30;;;;;;;65.97;37.30;;;6.40;84.40;;;;;;5072364;28;20033;-47
2020/12/16 04:48:56;;;;;;;66.05;36.88;;;6.60;84.90;;;;;;5073652;28;20029;-48
2020/12/16 04:51:25;;;;;;;67.57;39.08;;;6.60;84.30;;;;;;5073701;28;20123;-48
2020/12/16 04:53:53;;;;;;;65.00;36.22;;;6.20;86.20;;;;;;5073452;28;20074;-48
2020/12/16 04:56:21;;;;;;;66.80;37.85;;;6.20;86.60;;;;;;5073297;28;20024;-48
2020/12/16 04:58:47;;;;;;;64.53;34.70;;;6.20;87.70;;;;;;5073556;28;20102;-49
2020/12/16 05:01:13;;;;;;;65.53;37.25;;;6.10;87.60;;;;;;5090994;28;20468;-47
2020/12/16 05:03:41;;;;;;;69.88;36.97;;;6.00;88.20;;;;;;5091188;28;20075;-47
2020/12/16 05:06:07;;;;;;;68.03;37.47;;;6.00;88.70;;;;;;5091331;28;20033;-47
2020/12/16 05:08:33;;;;;;;62.20;35.30;;;6.00;88.80;;;;;;5090837;28;20067;-48
2020/12/16 05:10:59;;;;;;;65.57;35.70;;;6.30;87.90;;;;;;5092064;28;20078;-48
2020/12/16 05:13:26;;;;;;;66.65;38.08;;;5.80;89.10;;;;;;5095524;28;20020;-47
2020/12/16 05:15:53;;;;;;;71.55;38.40;;;6.00;88.80;;;;;;5078041;28;20122;-49
2020/12/16 05:18:20;;;;;;;66.80;36.63;;;5.90;89.30;;;;;;5095439;28;20028;-48
2020/12/16 05:20:55;;;;;;;66.47;36.30;;;6.20;88.70;;;;;;5095273;28;20104;-47
2020/12/16 05:23:28;;;;;;;71.20;36.38;;;6.10;88.00;;;;;;5095006;28;20031;-48
2020/12/16 05:26:06;;;;;;;70.32;38.45;;;6.00;88.40;;;;;;5095167;28;20039;-49
2020/12/16 05:28:37;;;;;;;73.60;39.38;;;6.30;87.90;;;;;;5095128;28;20047;-47
2020/12/16 05:31:11;;;;;;;72.63;37.80;;;6.40;87.50;;;;;;5094622;28;20036;-48
2020/12/16 05:33:48;;;;;;;65.15;35.33;;;6.50;86.30;;;;;;5076840;28;20021;-48
2020/12/16 05:36:31;;;;;;;65.10;35.38;;;6.40;86.60;;;;;;5076865;28;20119;-48
2020/12/16 05:38:58;;;;;;;67.72;35.72;;;6.00;88.70;;;;;;5077027;28;20025;-48
2020/12/16 05:41:29;;;;;;;69.07;37.20;;;6.00;89.50;;;;;;5076877;28;20074;-48
2020/12/16 05:44:18;;;;;;;68.35;36.40;;;6.10;89.10;;;;;;5076508;28;20040;-49
2020/12/16 05:46:44;;;;;;;72.70;37.95;;;5.90;89.10;;;;;;5076902;28;20025;-48
2020/12/16 05:49:28;;;;;;;68.32;36.65;;;6.00;89.00;;;;;;5076719;28;20025;-48
2020/12/16 05:51:58;;;;;;;76.18;39.70;;;5.90;89.40;;;;;;5091512;28;20033;-48
2020/12/16 05:54:24;;;;;;;80.75;46.83;;;6.00;89.10;;;;;;5076950;28;20035;-48
2020/12/16 05:57:12;;;;;;;77.05;44.35;;;6.10;88.10;;;;;;5076514;28;20075;-48
2020/12/16 05:59:38;;;;;;;68.10;39.35;;;6.40;87.10;;;;;;5076329;28;20029;-48
2020/12/16 06:02:05;;;;;;;66.47;36.70;;;6.50;86.30;;;;;;5076790;28;20491;-48
2020/12/16 06:04:37;;;;;;;67.30;35.30;;;6.60;85.50;;;;;;5075950;28;20087;-47
2020/12/16 06:07:03;;;;;;;69.63;38.05;;;6.60;85.30;;;;;;5076233;28;20036;-47
2020/12/16 06:09:32;;;;;;;72.22;38.78;;;6.50;85.60;;;;;;5074071;28;20135;-47
2020/12/16 06:12:06;;;;;;;74.30;38.33;;;6.60;85.30;;;;;;5074916;28;20071;-47
2020/12/16 06:14:35;;;;;;;69.88;37.17;;;6.50;86.00;;;;;;5090920;28;20542;-47
2020/12/16 06:17:11;;;;;;;70.15;35.33;;;6.70;85.60;;;;;;5076076;28;20468;-48
2020/12/16 06:19:43;;;;;;;71.80;36.17;;;6.50;86.00;;;;;;5090996;28;20041;-48
2020/12/16 06:22:10;;;;;;;70.00;39.50;;;6.30;86.20;;;;;;5075418;28;20081;-48
2020/12/16 06:24:43;;;;;;;71.43;37.97;;;6.20;86.70;;;;;;5075909;28;20040;-48
2020/12/16 06:27:11;;;;;;;76.43;41.17;;;6.50;86.30;;;;;;5093569;28;20036;-48
2020/12/16 06:29:47;;;;;;;85.95;42.67;;;6.40;86.10;;;;;;5095785;28;20036;-48
2020/12/16 06:32:32;;;;;;;72.63;36.05;;;6.30;86.80;;;;;;5094759;28;20490;-47
2020/12/16 06:34:59;;;;;;;72.70;38.03;;;6.00;87.80;;;;;;5093940;28;20105;-48
2020/12/16 06:37:25;;;;;;;85.70;45.75;;;6.00;88.50;;;;;;5095823;28;20047;-48
2020/12/16 06:39:50;;;;;;;78.90;39.65;;;6.20;87.40;;;;;;5095907;28;20024;-47
2020/12/16 06:42:33;;;;;;;66.82;36.65;;;6.20;87.30;;;;;;5095904;28;20102;-48
2020/12/16 06:45:08;;;;;;;;;;;6.40;86.40;;;;;;5093915;28;20079;-48
2020/12/16 06:47:34;;;;;;;66.10;34.63;;;6.30;87.10;;;;;;5095696;28;20034;-48
2020/12/16 06:50:16;;;;;;;70.65;34.58;;;6.10;87.50;;;;;;5095362;28;20446;-49
2020/12/16 06:52:41;;;;;;;77.65;41.75;;;5.70;89.60;;;;;;5095735;28;20028;-48
2020/12/16 06:55:07;;;;;;;92.10;57.35;;;5.90;89.00;;;;;;5088655;28;20035;-48
2020/12/16 06:57:45;;;;;;;64.57;33.50;;;6.20;87.70;;;;;;5089472;28;20120;-47
2020/12/16 07:00:18;;;;;;;64.45;32.95;;;5.90;87.70;;;;;;5092409;28;20090;-48
2020/12/16 07:02:43;;;;;;;65.35;33.33;;;6.00;87.50;;;;;;5092457;28;20040;-48
2020/12/16 07:05:39;;;;;;;62.28;34.10;;;6.00;87.70;;;;;;5040431;28;20446;-48
2020/12/16 07:08:06;;;;;;;68.55;34.15;;;6.30;87.50;;;;;;5090565;28;20032;-48
2020/12/16 07:10:36;;;;;;;70.63;36.78;;;6.30;87.20;;;;;;5078059;28;20072;-47
2020/12/16 07:13:15;;;;;;;64.18;34.78;;;6.30;87.60;;;;;;5055168;28;20465;-47
2020/12/16 07:16:09;;;;;;;66.93;36.28;;;6.70;86.20;;;;;;5072767;28;20056;-48
2020/12/16 07:18:51;;;;;;;67.72;36.70;;;7.00;84.50;;;;;;5073175;28;20044;-47
2020/12/16 07:21:26;;;;;;;;;;;6.80;84.00;;;;;;5057704;28;20426;-48
2020/12/16 07:24:18;;;;;;;66.68;33.25;;;6.60;84.90;;;;;;5087494;28;19916;-48
2020/12/16 07:26:56;;;;;;;65.05;35.30;;;6.60;85.90;;;;;;5087541;28;20368;-48
2020/12/16 07:29:30;;;;;;;68.45;37.03;;;6.50;86.00;;;;;;5093554;28;20036;-48
2020/12/16 07:32:05;;;;;;;63.70;32.67;;;6.50;85.80;;;;;;5085343;28;20035;-48
2020/12/16 07:34:42;;;;;;;63.08;32.58;;;6.60;85.30;;;;;;5091909;28;20047;-47
2020/12/16 07:37:08;;;;;;;65.40;35.85;;;6.90;84.90;;;;;;5089144;28;20480;-47
2020/12/16 07:39:34;;;;;;;64.00;34.00;;;7.00;84.40;;;;;;5094334;28;20028;-48
2020/12/16 07:42:01;;;;;;;64.65;34.90;;;7.20;83.40;;;;;;5094371;28;20095;-47
2020/12/16 07:44:27;;;;;;;66.90;34.55;;;7.10;82.60;;;;;;5109415;28;20105;-48
2020/12/16 07:47:04;;;;;;;62.15;33.95;;;7.10;82.70;;;;;;5092596;28;20560;-47
2020/12/16 07:49:32;;;;;;;67.15;34.17;;;7.00;83.30;;;;;;5088362;28;20035;-48
2020/12/16 07:52:01;;;;;;;70.00;34.92;;;6.90;83.60;;;;;;5091247;28;20028;-48
2020/12/16 07:54:27;;;;;;;69.10;36.35;;;6.80;83.20;;;;;;5094007;28;20482;-48
2020/12/16 07:56:53;;;;;;;67.88;35.30;;;6.70;84.50;;;;;;5093951;28;20032;-47
2020/12/16 07:59:19;;;;;;;67.25;34.55;;;6.80;83.90;;;;;;5093160;28;20096;-47
2020/12/16 08:01:44;;;;;;;69.50;36.08;;;6.80;83.80;;;;;;5093217;28;20028;-48
2020/12/16 08:04:15;;;;;;;75.30;37.33;;;6.90;83.90;;;;;;5093163;28;20035;-47
2020/12/16 08:06:42;;;;;;;67.15;35.00;;;7.00;84.20;;;;;;5093085;28;20035;-47
2020/12/16 08:09:08;;;;;;;70.80;36.47;;;7.20;83.40;;;;;;5092863;28;20036;-47
2020/12/16 08:11:34;;;;;;;70.70;35.58;;;6.70;84.40;;;;;;5092986;28;20031;-47
2020/12/16 08:14:06;;;;;;;70.05;38.03;;;6.70;84.90;;;;;;5107890;28;20036;-47
2020/12/16 08:16:34;;;;;;;71.15;37.22;;;6.50;85.20;;;;;;5093008;28;20402;-48
2020/12/16 08:19:01;;;;;;;84.35;46.08;;;6.60;84.90;;;;;;5092733;28;20587;-48
2020/12/16 08:21:27;;;;;;;71.18;38.30;;;7.00;85.40;;;;;;5107761;28;20036;-48
2020/12/16 08:23:54;;;;;;;85.03;46.78;;;7.30;83.20;;;;;;5092764;28;20036;-47
2020/12/16 08:26:23;;;;;;;83.63;43.05;;;7.50;81.60;;;;;;5084356;28;20056;-47
2020/12/16 08:28:50;;;;;;;75.20;39.97;;;7.70;81.70;;;;;;5072369;28;20051;-47
2020/12/16 08:31:21;;;;;;;69.28;36.42;;;7.40;81.20;;;;;;5072408;28;20025;-47
2020/12/16 08:33:50;;;;;;;75.78;39.92;;;6.90;82.60;;;;;;5087058;28;20036;-47
2020/12/16 08:36:26;;;;;;;74.75;38.22;;;6.60;84.60;;;;;;5075034;28;20036;-47
2020/12/16 08:38:53;;;;;;;80.95;39.92;;;6.50;85.50;;;;;;5072199;28;20027;-48
2020/12/16 08:41:28;;;;;;;75.70;39.22;;;6.40;86.30;;;;;;5072272;28;20038;-47
2020/12/16 08:43:56;;;;;;;78.72;39.88;;;6.60;86.20;;;;;;5072228;28;20472;-47
2020/12/16 08:46:25;;;;;;;76.07;39.15;;;7.00;84.60;;;;;;5072092;28;20027;-47
2020/12/16 08:49:02;;;;;;;74.65;39.50;;;7.30;83.00;;;;;;5072211;28;20120;-47
2020/12/16 08:51:32;;;;;;;81.07;42.63;;;7.60;81.80;;;;;;5072064;28;20024;-47
2020/12/16 08:54:00;;;;;;;74.38;38.58;;;7.60;80.70;;;;;;5072221;28;20070;-47
2020/12/16 08:56:37;;;;;;;76.20;38.58;;;7.60;80.40;;;;;;5086765;28;20032;-47
2020/12/16 08:59:07;;;;;;;82.88;49.05;;;7.50;80.40;;;;;;5072206;28;20448;-47
2020/12/16 09:01:33;;;;;;;77.93;39.00;;;7.10;82.20;;;;;;5086749;28;20044;-47
2020/12/16 09:04:00;;;;;;;76.53;40.88;;;7.50;81.80;;;;;;5086422;28;20041;-47
2020/12/16 09:06:26;;;;;;;84.75;52.33;;;7.60;80.30;;;;;;5086784;28;20115;-47
2020/12/16 09:08:52;;;;;;;70.50;37.60;;;6.90;82.60;;;;;;5071851;28;20484;-47
2020/12/16 09:11:23;;;;;;;73.50;37.92;;;7.40;82.40;;;;;;5072028;28;20063;-47
2020/12/16 09:13:50;;;;;;;67.35;36.35;;;7.70;80.80;;;;;;5086578;28;20037;-47
2020/12/16 09:16:23;;;;;;;70.90;37.63;;;7.90;79.80;;;;;;5071825;28;20586;-47
2020/12/16 09:18:50;;;;;;;69.88;38.88;;;7.90;80.00;;;;;;5071776;28;20024;-47
2020/12/16 09:21:17;;;;;;;73.47;38.45;;;8.10;79.40;;;;;;5086510;28;20036;-47
2020/12/16 09:23:44;;;;;;;64.60;33.53;;;8.30;78.60;;;;;;5071792;28;20040;-47
2020/12/16 09:26:11;;;;;;;65.95;35.38;;;8.00;78.20;;;;;;5071555;28;20021;-47
2020/12/16 09:28:39;;;;;;;79.60;42.38;;;7.60;79.60;;;;;;5088335;28;20048;-47
2020/12/16 09:31:20;;;;;;;119.93;58.90;;;7.40;81.10;;;;;;5091510;28;20039;-48
2020/12/16 09:33:56;;;;;;;94.57;48.40;;;7.90;81.50;;;;;;5091855;28;20066;-47
2020/12/16 09:36:28;;;;;;;71.28;37.25;;;8.20;79.40;;;;;;5091863;28;20028;-47
2020/12/16 09:39:04;;;;;;;75.25;41.67;;;8.10;78.10;;;;;;5091938;28;20341;-48
2020/12/16 09:41:45;;;;;;;84.47;42.05;;;8.30;78.60;;;;;;5091153;28;20027;-47
2020/12/16 09:44:31;;;;;;;80.07;41.97;;;8.50;77.80;;;;;;5089951;28;20502;-48
2020/12/16 09:47:29;;;;;;;82.63;41.78;;;8.60;77.00;;;;;;5091785;28;20055;-48
2020/12/16 09:50:03;;;;;;;81.55;42.20;;;8.30;77.90;;;;;;4999412;28;20041;-48
2020/12/16 09:52:34;;;;;;;80.13;41.70;;;8.10;79.20;;;;;;5049163;28;20073;-48
2020/12/16 09:55:20;;;;;;;80.03;42.63;;;8.10;79.30;;;;;;5049215;28;20103;-48
2020/12/16 09:58:06;;;;;;;80.07;43.05;;;8.30;78.80;;;;;;5051269;28;20029;-47
2020/12/16 10:00:34;;;;;;;73.28;39.17;;;8.40;78.00;;;;;;5052756;28;20529;-48
2020/12/16 10:03:07;;;;;;;84.55;46.63;;;8.50;77.70;;;;;;5052734;28;20467;-48
2020/12/16 10:05:34;;;;;;;87.13;43.13;;;8.40;77.10;;;;;;5052564;28;20454;-48
2020/12/16 10:07:59;;;;;;;81.65;42.10;;;8.40;78.80;;;;;;5003097;28;20102;-47
2020/12/16 10:10:30;;;;;;;81.63;45.33;;;8.50;77.90;;;;;;5052006;28;20504;-48
2020/12/16 10:12:56;;;;;;;95.43;50.33;;;8.50;77.70;;;;;;5052575;28;20040;-48
2020/12/16 10:15:22;;;;;;;89.10;48.17;;;8.70;77.70;;;;;;5052722;28;20082;-47
2020/12/16 10:17:47;;;;;;;97.47;50.60;;;8.80;76.90;;;;;;5002869;28;20037;-48
2020/12/16 10:20:13;;;;;;;152.18;69.68;;;8.90;76.90;;;;;;5002693;28;20484;-47
2020/12/16 10:22:41;;;;;;;93.55;46.55;;;8.80;77.60;;;;;;5052188;28;20040;-48
2020/12/16 10:25:07;;;;;;;95.97;49.45;;;8.80;77.70;;;;;;5066434;28;20044;-48
2020/12/16 10:27:32;;;;;;;86.15;47.42;;;8.60;78.00;;;;;;5094957;28;20032;-48
2020/12/16 10:30:03;;;;;;;92.15;48.67;;;8.80;76.60;;;;;;5092740;28;20043;-48
2020/12/16 10:32:29;;;;;;;82.90;42.55;;;8.80;76.70;;;;;;5094402;28;20451;-47
2020/12/16 10:34:54;;;;;;;83.28;43.97;;;8.60;76.40;;;;;;5096119;28;20028;-48
2020/12/16 10:37:24;;;;;;;88.32;45.53;;;8.60;77.50;;;;;;5096169;28;20028;-48
2020/12/16 10:39:51;;;;;;;88.18;45.78;;;8.70;77.50;;;;;;5095700;28;20097;-47
2020/12/16 10:42:17;;;;;;;99.45;53.50;;;8.70;76.80;;;;;;5095979;28;20028;-47
2020/12/16 10:44:44;;;;;;;104.15;55.40;;;8.30;77.50;;;;;;5095625;28;20046;-47
2020/12/16 10:47:10;;;;;;;101.97;53.50;;;8.20;78.60;;;;;;5095813;28;20028;-47
2020/12/16 10:49:36;;;;;;;104.55;55.70;;;7.90;78.70;;;;;;5095655;28;20031;-47
2020/12/16 10:52:07;;;;;;;102.75;54.28;;;8.30;79.00;;;;;;5095723;28;20068;-47
2020/12/16 10:54:34;;;;;;;99.90;51.78;;;8.20;78.40;;;;;;5093857;28;20387;-47
2020/12/16 10:57:00;;;;;;;101.43;52.45;;;8.40;78.40;;;;;;5095652;28;20020;-47
2020/12/16 10:59:29;;;;;;;106.40;54.38;;;8.40;77.70;;;;;;5095509;28;20024;-47
2020/12/16 11:01:59;;;;;;;107.88;55.45;;;8.20;78.40;;;;;;5095276;28;20036;-47
2020/12/16 11:04:28;;;;;;;108.45;55.83;;;8.40;78.70;;;;;;5095403;28;20027;-47
2020/12/16 11:06:54;;;;;;;111.82;57.50;;;8.50;78.70;;;;;;5095379;28;20025;-47
2020/12/16 11:09:20;;;;;;;114.60;60.13;;;8.70;76.80;;;;;;5095225;28;20044;-47
2020/12/16 11:11:47;;;;;;;106.78;59.35;;;8.90;77.10;;;;;;5095404;28;20016;-47
2020/12/16 11:14:13;;;;;;;114.47;59.45;;;8.80;76.70;;;;;;5095067;28;20028;-46
2020/12/16 11:16:40;;;;;;;112.40;58.45;;;9.00;75.50;;;;;;5095316;28;20016;-47
2020/12/16 11:19:07;;;;;;;103.72;56.83;;;8.80;75.70;;;;;;5095133;28;20050;-46
2020/12/16 11:21:41;;;;;;;105.88;53.85;;;8.90;75.30;;;;;;5095156;28;20113;-47
2020/12/16 11:24:08;;;;;;;100.10;52.88;;;9.00;74.80;;;;;;5093390;28;20883;-46
2020/12/16 11:26:43;;;;;;;94.07;51.28;;;9.10;74.30;;;;;;5091972;28;20136;-47
2020/12/16 11:29:10;;;;;;;98.15;50.72;;;9.10;74.30;;;;;;5090537;28;20490;-46
2020/12/16 11:31:43;;;;;;;96.78;52.15;;;9.10;74.30;;;;;;5104597;27;20043;-47
2020/12/16 11:34:09;;;;;;;119.97;66.68;;;9.20;74.00;;;;;;5084354;28;20028;-46
2020/12/16 11:36:40;;;;;;;122.07;64.68;;;9.00;75.10;;;;;;5092389;28;20028;-46
2020/12/16 11:39:07;;;;;;;139.23;70.82;;;9.10;74.90;;;;;;5094459;28;20020;-46
2020/12/16 11:41:34;;;;;;;138.02;71.35;;;9.10;74.60;;;;;;5092356;28;20497;-46
2020/12/16 11:44:01;;;;;;;138.13;70.57;;;9.10;76.00;;;;;;5074974;28;20039;-46
2020/12/16 11:46:28;;;;;;;131.07;72.38;;;8.90;75.90;;;;;;5075033;28;20566;-47
2020/12/16 11:48:55;;;;;;;143.32;73.78;;;9.10;74.50;;;;;;5088937;28;20036;-46
2020/12/16 11:51:21;;;;;;;139.13;72.97;;;9.00;74.40;;;;;;5071845;28;20062;-46
2020/12/16 11:53:47;;;;;;;142.38;75.78;;;9.00;75.00;;;;;;5054947;28;20036;-46
2020/12/16 11:56:12;;;;;;;129.40;69.18;;;8.80;76.20;;;;;;5071923;28;20380;-46
2020/12/16 11:58:38;;;;;;;128.32;69.03;;;8.90;75.50;;;;;;5055019;28;20032;-46
2020/12/16 12:01:04;;;;;;;122.35;69.50;;;9.00;75.10;;;;;;5071599;28;20036;-47
2020/12/16 12:03:30;;;;;;;127.95;68.93;;;8.80;74.80;;;;;;5071622;28;20062;-46
2020/12/16 12:05:56;;;;;;;121.20;64.28;;;8.70;75.50;;;;;;5071514;28;20075;-46
2020/12/16 12:08:21;;;;;;;128.05;68.60;;;8.80;75.60;;;;;;5071149;28;20047;-46
2020/12/16 12:10:47;;;;;;;127.80;66.35;;;8.90;74.30;;;;;;5071581;28;20464;-46
2020/12/16 12:13:14;;;;;;;100.88;55.13;;;9.00;74.10;;;;;;5067557;28;20028;-45
2020/12/16 12:15:39;;;;;;;106.43;56.25;;;9.10;74.10;;;;;;5073449;28;20021;-46
2020/12/16 12:18:05;;;;;;;100.85;51.63;;;9.20;73.60;;;;;;5073604;28;20069;-46
2020/12/16 12:20:46;;;;;;;104.70;56.75;;;9.20;73.70;;;;;;5011529;28;20045;-46
2020/12/16 12:23:12;;;;;;;92.75;51.75;;;9.30;73.30;;;;;;5010954;28;20489;-48
2020/12/16 12:25:38;;;;;;;98.97;55.20;;;9.40;73.30;;;;;;4994040;28;20425;-46
2020/12/16 12:28:04;;;;;;;93.57;51.03;;;9.40;72.60;;;;;;4993921;28;20088;-46
2020/12/16 12:30:30;;;;;;;95.65;50.17;;;9.50;72.80;;;;;;5010342;28;20025;-46
2020/12/16 12:32:55;;;;;;;90.28;51.03;;;9.50;72.20;;;;;;4993737;28;20478;-46
2020/12/16 12:35:21;;;;;;;96.47;52.47;;;9.50;72.10;;;;;;5010387;28;20032;-47
2020/12/16 12:37:47;;;;;;;93.80;52.13;;;9.40;72.60;;;;;;4993551;28;20037;-46
2020/12/16 12:40:13;;;;;;;85.53;46.55;;;9.40;72.70;;;;;;5010118;28;20112;-46
2020/12/16 12:42:39;;;;;;;91.25;48.95;;;9.40;72.50;;;;;;5010277;28;20410;-46
2020/12/16 12:45:05;;;;;;;89.82;48.35;;;9.20;73.50;;;;;;5010096;28;20050;-46